Time;durP1;ratioP1;P1;durP2;ratioP2;P2;SDS_P1;SDS_P2;PMS_P1;PMS_P2;Temp;Humidity;BMP_temperature;BMP_pressure;BME280_temperature;BME280_humidity;BME280_pressure;Samples;Min_cycle;Max_cycle;Signal;HPM_P1;HPM_P2
2023/03/24 00:00:46;;;;;;;19.50;14.13;;;;;;;10.65;52.46;95001.97;4961749;28;20192;-65
2023/03/24 00:03:11;;;;;;;20.37;12.97;;;;;;;10.62;52.55;95000.47;4960260;28;20228;-65
2023/03/24 00:05:37;;;;;;;17.63;13.27;;;;;;;10.66;52.33;94998.34;4962574;28;20319;-65
2023/03/24 00:08:03;;;;;;;17.35;13.57;;;;;;;10.56;52.31;94999.25;4966186;28;20683;-65
2023/03/24 00:10:33;;;;;;;20.30;13.77;;;;;;;10.51;52.70;95004.16;4966178;28;20216;-65
2023/03/24 00:13:00;;;;;;;19.30;13.47;;;;;;;10.43;52.63;95005.88;4966651;28;20199;-65
2023/03/24 00:15:26;;;;;;;23.90;13.90;;;;;;;10.35;52.89;94996.94;4960240;28;20200;-65
2023/03/24 00:17:54;;;;;;;20.23;13.97;;;;;;;10.40;52.61;94999.13;4961888;28;20231;-65
2023/03/24 00:20:21;;;;;;;17.67;12.67;;;;;;;10.20;53.22;94998.41;4955621;28;20228;-64
2023/03/24 00:22:55;;;;;;;17.50;14.70;;;;;;;10.09;53.71;95002.09;4959572;28;20228;-64
2023/03/24 00:25:26;;;;;;;17.43;13.03;;;;;;;10.11;53.56;95001.94;4964523;28;20233;-65
2023/03/24 00:27:53;;;;;;;15.67;13.47;;;;;;;10.14;53.31;95010.34;4957758;28;20203;-65
2023/03/24 00:30:19;;;;;;;16.23;13.77;;;;;;;9.89;53.80;95003.16;4958865;28;20242;-65
2023/03/24 00:32:45;;;;;;;18.13;13.97;;;;;;;9.76;54.27;95007.97;4963249;28;20220;-65
2023/03/24 00:35:13;;;;;;;17.43;13.33;;;;;;;9.78;54.25;95006.84;4962598;28;20228;-65
2023/03/24 00:37:40;;;;;;;15.63;13.70;;;;;;;9.86;53.68;95006.94;4959325;28;20243;-66
2023/03/24 00:40:11;;;;;;;15.90;14.10;;;;;;;9.74;54.19;95000.25;4961948;28;20220;-65
2023/03/24 00:42:37;;;;;;;18.80;14.50;;;;;;;9.85;54.05;95007.09;4974328;28;20189;-66
2023/03/24 00:45:05;;;;;;;19.37;14.23;;;;;;;9.89;53.87;95003.16;4963814;28;20224;-65
2023/03/24 00:47:36;;;;;;;16.97;13.40;;;;;;;10.01;53.39;94996.75;4959793;28;20240;-65
2023/03/24 00:50:10;;;;;;;15.57;13.97;;;;;;;9.98;53.36;94991.78;4961835;28;20470;-65
2023/03/24 00:52:35;;;;;;;17.27;15.23;;;;;;;9.93;53.64;94991.41;4963724;28;20258;-65
2023/03/24 00:55:03;;;;;;;16.20;14.43;;;;;;;9.81;54.05;94987.31;4965369;28;20228;-62
2023/03/24 00:57:33;;;;;;;18.73;14.50;;;;;;;9.56;54.81;94994.94;4963037;28;20177;-63
2023/03/24 01:00:15;;;;;;;21.00;16.87;;;;;;;9.77;54.34;94991.25;4960267;28;20455;-63
2023/03/24 01:02:42;;;;;;;18.97;15.77;;;;;;;9.78;54.50;94996.31;4957101;28;20248;-62
2023/03/24 01:05:08;;;;;;;19.63;15.00;;;;;;;9.83;54.38;94988.84;4966174;28;20238;-62
2023/03/24 01:07:33;;;;;;;17.43;15.60;;;;;;;9.64;54.85;94986.34;4990097;28;20232;-62
2023/03/24 01:10:00;;;;;;;18.27;15.47;;;;;;;9.75;54.44;94988.75;4961753;28;20591;-61
2023/03/24 01:12:30;;;;;;;16.77;14.97;;;;;;;9.85;54.28;94993.94;4960885;28;20271;-62
2023/03/24 01:14:57;;;;;;;19.25;14.70;;;;;;;9.89;53.98;94985.63;4958914;28;20223;-62
2023/03/24 01:17:24;;;;;;;19.23;14.27;;;;;;;9.79;54.40;94989.31;4991518;28;20224;-62
2023/03/24 01:19:53;;;;;;;18.10;15.27;;;;;;;9.66;54.78;94990.47;4957518;28;20215;-62
2023/03/24 01:22:19;;;;;;;16.77;14.37;;;;;;;9.66;54.72;94990.47;4975009;28;20244;-62
2023/03/24 01:24:48;;;;;;;17.87;14.87;;;;;;;9.70;54.54;94986.59;4964376;28;20188;-62
2023/03/24 01:27:14;;;;;;;19.97;15.07;;;;;;;9.52;54.71;94977.84;4960297;28;20353;-62
2023/03/24 01:29:41;;;;;;;19.03;15.27;;;;;;;9.38;55.57;94988.81;4957069;28;20224;-62
2023/03/24 01:32:07;;;;;;;21.23;15.40;;;;;;;9.40;55.35;94994.75;4960577;28;20239;-61
2023/03/24 01:34:33;;;;;;;20.93;15.97;;;;;;;9.24;55.86;94983.06;4959199;28;20223;-62
2023/03/24 01:37:00;;;;;;;19.17;15.87;;;;;;;9.23;55.79;94980.59;4959315;28;20220;-62
2023/03/24 01:39:26;;;;;;;16.33;14.27;;;;;;;9.11;56.45;94986.97;4953903;28;20189;-62
2023/03/24 01:41:51;;;;;;;20.23;14.00;;;;;;;9.18;56.38;94983.66;4990584;28;20260;-62
2023/03/24 01:44:28;;;;;;;19.00;15.30;;;;;;;9.36;55.60;94985.53;4961694;28;20224;-62
2023/03/24 01:46:55;;;;;;;22.60;15.80;;;;;;;9.37;55.31;94985.34;4962634;28;20231;-62
2023/03/24 01:49:25;;;;;;;22.53;16.87;;;;;;;9.26;55.86;94980.31;4957180;28;20251;-62
2023/03/24 01:51:55;;;;;;;17.37;14.53;;;;;;;9.28;55.97;94981.81;4984489;28;20196;-62
2023/03/24 01:54:32;;;;;;;21.50;15.07;;;;;;;9.38;55.61;94987.03;4974768;28;20196;-62
2023/03/24 01:56:58;;;;;;;18.80;15.30;;;;;;;9.15;56.30;94983.94;4964603;28;20255;-61
2023/03/24 01:59:27;;;;;;;21.40;15.30;;;;;;;9.05;56.67;94980.50;4972396;28;20232;-62
2023/03/24 02:02:01;;;;;;;17.10;15.10;;;;;;;9.15;56.55;94983.13;4964345;28;20247;-61
2023/03/24 02:04:30;;;;;;;17.80;15.23;;;;;;;9.21;56.16;94988.59;4963663;28;20224;-62
2023/03/24 02:06:58;;;;;;;17.87;15.13;;;;;;;9.13;56.23;94993.75;4988698;28;20184;-62
2023/03/24 02:09:23;;;;;;;18.17;15.10;;;;;;;9.22;55.79;94992.91;4958817;28;20204;-62
2023/03/24 02:11:49;;;;;;;17.00;14.33;;;;;;;9.26;55.82;94999.50;4959646;28;20235;-62
2023/03/24 02:14:16;;;;;;;15.47;13.90;;;;;;;9.03;56.29;94988.53;4962232;28;20267;-63
2023/03/24 02:17:09;;;;;;;15.70;13.97;;;;;;;8.92;56.39;94991.31;4970255;28;20271;-62
2023/03/24 02:19:43;;;;;;;17.87;15.37;;;;;;;8.76;57.01;95004.19;4959430;28;20238;-62
2023/03/24 02:22:39;;;;;;;17.60;14.57;;;;;;;8.74;57.00;95006.97;4963359;28;20223;-62
2023/03/24 02:25:45;;;;;;;17.30;14.63;;;;;;;8.70;56.95;94996.88;4992471;28;20223;-62
2023/03/24 02:28:14;;;;;;;16.90;15.20;;;;;;;8.52;57.87;94996.78;4975523;28;20275;-62
2023/03/24 02:31:02;;;;;;;19.67;15.57;;;;;;;8.46;58.16;94994.72;4989299;28;20282;-62
2023/03/24 02:33:45;;;;;;;21.43;15.43;;;;;;;8.68;57.33;94993.56;4944776;28;20224;-62
2023/03/24 02:36:35;;;;;;;18.37;14.83;;;;;;;8.72;57.27;95003.66;4987647;28;20243;-62
2023/03/24 02:39:32;;;;;;;18.23;15.50;;;;;;;8.71;57.25;94999.34;4991460;28;20307;-61
2023/03/24 02:42:00;;;;;;;18.77;16.57;;;;;;;8.54;57.85;94982.56;4975893;28;20231;-62
2023/03/24 02:45:01;;;;;;;22.77;16.50;;;;;;;8.67;57.94;94986.69;4990413;28;20228;-62
2023/03/24 02:47:27;;;;;;;18.83;15.87;;;;;;;8.66;57.99;94991.13;4964506;28;20237;-61
2023/03/24 02:50:19;;;;;;;20.93;16.90;;;;;;;8.59;58.18;94976.91;4959066;28;20332;-61
2023/03/24 02:52:54;;;;;;;19.70;16.50;;;;;;;8.64;58.24;94971.25;4964652;28;20233;-61
2023/03/24 02:55:25;;;;;;;21.10;16.73;;;;;;;8.59;58.79;94967.25;4957484;28;20228;-62
2023/03/24 02:57:56;;;;;;;19.00;17.10;;;;;;;8.72;58.60;94972.19;4960893;28;20235;-62
2023/03/24 03:00:40;;;;;;;19.57;16.80;;;;;;;8.89;58.01;94960.13;4951948;28;20790;-62
2023/03/24 03:03:14;;;;;;;19.00;17.00;;;;;;;8.86;58.04;94957.81;4957230;28;20252;-61
2023/03/24 03:05:54;;;;;;;17.57;15.80;;;;;;;8.71;58.12;94967.06;4943660;28;20224;-62
2023/03/24 03:08:22;;;;;;;19.90;16.10;;;;;;;8.63;58.56;94964.34;4953885;28;20223;-63
2023/03/24 03:10:50;;;;;;;18.53;16.13;;;;;;;8.70;58.50;94961.00;4964985;28;20278;-62
2023/03/24 03:13:42;;;;;;;18.33;15.97;;;;;;;8.68;58.19;94962.94;4957512;28;20291;-62
2023/03/24 03:16:24;;;;;;;17.83;16.00;;;;;;;8.61;58.39;94960.06;4946613;28;20204;-62
2023/03/24 03:18:57;;;;;;;18.70;15.30;;;;;;;8.55;58.49;94962.41;4953689;28;20207;-62
2023/03/24 03:21:26;;;;;;;17.57;15.73;;;;;;;8.67;58.35;94966.53;4955806;28;20195;-62
2023/03/24 03:24:01;;;;;;;19.17;17.27;;;;;;;8.65;58.56;94970.28;4954794;28;20288;-61
2023/03/24 03:26:31;;;;;;;18.43;16.63;;;;;;;8.69;58.54;94967.25;4957042;28;20316;-61
2023/03/24 03:29:03;;;;;;;18.00;16.17;;;;;;;8.77;58.21;94964.72;4953667;28;20869;-61
2023/03/24 03:31:43;;;;;;;21.30;16.50;;;;;;;8.77;58.03;94964.72;4970573;28;20216;-61
2023/03/24 03:34:17;;;;;;;19.07;17.03;;;;;;;8.78;57.89;94953.25;4964474;28;20339;-62
2023/03/24 03:37:15;;;;;;;19.17;17.13;;;;;;;8.71;58.05;94952.16;4979637;28;20196;-62
2023/03/24 03:39:52;;;;;;;18.00;15.80;;;;;;;8.50;58.52;94955.00;4998879;28;20713;-63
2023/03/24 03:42:18;;;;;;;18.30;16.50;;;;;;;8.58;58.45;94952.50;4952617;28;20221;-62
2023/03/24 03:44:44;;;;;;;19.73;16.67;;;;;;;8.54;58.40;94951.13;4967521;28;20306;-62
2023/03/24 03:47:10;;;;;;;18.53;15.53;;;;;;;8.48;58.79;94950.88;4969899;28;20224;-62
2023/03/24 03:49:36;;;;;;;21.87;16.63;;;;;;;8.47;58.95;94954.44;4963779;28;20233;-62
2023/03/24 03:52:03;;;;;;;22.03;17.47;;;;;;;8.49;58.65;94955.94;4966870;28;20199;-62
2023/03/24 03:54:30;;;;;;;25.47;17.07;;;;;;;8.36;59.17;94958.00;4974169;28;20181;-62
2023/03/24 03:56:56;;;;;;;17.50;15.90;;;;;;;8.47;58.57;94965.72;4970023;28;20239;-62
2023/03/24 03:59:35;;;;;;;19.83;16.70;;;;;;;8.46;58.74;94966.72;4965873;28;20224;-62
2023/03/24 04:02:43;;;;;;;21.40;16.10;;;;;;;8.31;59.00;94971.53;4969525;28;20235;-61
2023/03/24 04:05:26;;;;;;;22.00;16.97;;;;;;;8.28;59.08;94984.06;4949750;28;20264;-62
2023/03/24 04:08:13;;;;;;;19.57;15.60;;;;;;;8.18;59.36;94977.06;4942039;28;20227;-61
2023/03/24 04:10:56;;;;;;;17.90;16.00;;;;;;;8.36;59.20;94974.53;4969345;28;20299;-62
2023/03/24 04:13:34;;;;;;;17.93;15.20;;;;;;;8.36;58.92;94984.19;4952869;28;20228;-62
2023/03/24 04:16:39;;;;;;;18.67;15.83;;;;;;;8.24;59.36;94982.72;4968473;28;20354;-62
2023/03/24 04:19:16;;;;;;;23.23;15.03;;;;;;;8.13;59.49;94988.91;4968714;28;20271;-61
2023/03/24 04:22:11;;;;;;;19.07;14.97;;;;;;;8.03;59.46;94980.22;4969301;28;20184;-62
2023/03/24 04:24:43;;;;;;;21.63;13.87;;;;;;;8.07;59.30;94981.56;4970471;28;20259;-62
2023/03/24 04:27:20;;;;;;;15.67;13.17;;;;;;;8.11;58.71;94977.75;4951200;28;20223;-62
2023/03/24 04:30:09;;;;;;;15.60;13.97;;;;;;;8.13;58.32;94975.81;4969987;28;20224;-62
2023/03/24 04:32:41;;;;;;;15.07;13.00;;;;;;;8.24;57.72;94982.72;4897782;29;20259;-62
2023/03/24 04:35:19;;;;;;;13.67;12.30;;;;;;;8.17;58.01;94979.78;4915145;29;20219;-62
2023/03/24 04:37:46;;;;;;;15.57;12.87;;;;;;;8.25;57.80;94977.31;4915932;29;20292;-65
2023/03/24 04:40:13;;;;;;;17.90;14.13;;;;;;;7.88;58.64;94983.22;4918084;29;20233;-68
2023/03/24 04:42:47;;;;;;;14.90;13.07;;;;;;;8.12;57.76;94995.91;4898888;29;20217;-66
2023/03/24 04:45:15;;;;;;;14.40;12.90;;;;;;;8.11;57.33;94993.44;4912869;29;20317;-66
2023/03/24 04:47:46;;;;;;;13.23;11.37;;;;;;;8.08;57.10;94991.94;4891751;29;20402;-66
2023/03/24 04:50:13;;;;;;;16.03;12.23;;;;;;;8.16;56.80;94993.88;4895377;29;20241;-67
2023/03/24 04:52:41;;;;;;;13.43;11.77;;;;;;;8.15;56.60;94998.28;4911172;29;20219;-66
2023/03/24 04:55:48;;;;;;;13.83;11.57;;;;;;;8.20;56.47;95013.56;4912989;29;20194;-62
2023/03/24 04:58:14;;;;;;;16.80;11.50;;;;;;;8.07;56.68;95007.75;4901700;29;20322;-65
2023/03/24 05:00:40;;;;;;;11.30;10.03;;;;;;;8.07;56.84;95008.63;4913465;29;20254;-69
2023/03/24 05:03:07;;;;;;;11.67;10.43;;;;;;;8.04;56.74;95015.91;4901470;29;20225;-67
2023/03/24 05:05:32;;;;;;;13.30;10.40;;;;;;;8.12;56.69;95014.25;4895200;29;20230;-62
2023/03/24 05:07:59;;;;;;;14.60;10.00;;;;;;;8.21;56.54;95012.63;4915920;29;20230;-66
2023/03/24 05:10:24;;;;;;;11.70;9.77;;;;;;;8.20;56.15;95010.94;4931305;28;20213;-65
2023/03/24 05:12:50;;;;;;;15.43;10.60;;;;;;;8.22;55.82;95016.88;4946918;28;20269;-66
2023/03/24 05:15:15;;;;;;;13.30;10.37;;;;;;;8.31;55.59;95021.31;4942193;29;20189;-67
2023/03/24 05:17:41;;;;;;;16.10;10.83;;;;;;;8.36;55.70;95019.09;4944204;28;20233;-65
2023/03/24 05:20:10;;;;;;;15.13;9.80;;;;;;;8.39;55.64;95020.63;4950089;28;20245;-67
2023/03/24 05:22:37;;;;;;;14.53;10.37;;;;;;;8.26;56.12;95027.91;4946442;28;20271;-66
2023/03/24 05:25:03;;;;;;;14.20;10.23;;;;;;;8.21;56.32;95017.03;4950868;28;20240;-65
2023/03/24 05:27:28;;;;;;;12.23;10.10;;;;;;;8.29;55.86;95019.78;4969609;28;20176;-63
2023/03/24 05:29:54;;;;;;;11.97;10.63;;;;;;;8.39;55.65;95029.34;4956117;28;20565;-67
2023/03/24 05:32:19;;;;;;;13.00;10.80;;;;;;;8.23;56.19;95018.53;4989869;28;20240;-62
2023/03/24 05:34:44;;;;;;;15.60;11.23;;;;;;;8.28;56.06;95033.84;4961713;28;20221;-67
2023/03/24 05:37:13;;;;;;;16.10;10.83;;;;;;;8.27;56.24;95030.41;4968093;28;20262;-66
2023/03/24 05:39:38;;;;;;;15.43;11.27;;;;;;;8.28;56.24;95031.22;4964489;28;20954;-63
2023/03/24 05:42:04;;;;;;;14.50;12.03;;;;;;;8.32;56.53;95028.19;4969096;28;20239;-64
2023/03/24 05:44:30;;;;;;;13.43;12.00;;;;;;;8.26;56.83;95025.28;4960821;28;20235;-67
2023/03/24 05:46:55;;;;;;;13.80;12.33;;;;;;;8.29;57.04;95019.78;4968171;28;20310;-65
2023/03/24 05:49:20;;;;;;;15.47;12.07;;;;;;;8.43;57.11;95023.81;4967076;28;20268;-65
2023/03/24 05:51:46;;;;;;;19.40;13.37;;;;;;;8.48;56.77;95026.84;4962957;28;20191;-65
2023/03/24 05:54:12;;;;;;;22.30;13.30;;;;;;;8.54;56.66;95023.66;4974096;28;20233;-67
2023/03/24 05:56:37;;;;;;;17.67;12.30;;;;;;;8.68;56.33;95025.84;4962155;28;20312;-66
2023/03/24 05:59:03;;;;;;;20.83;13.87;;;;;;;8.71;56.37;95015.09;4966113;28;20253;-69
2023/03/24 06:01:29;;;;;;;16.83;13.23;;;;;;;8.87;56.07;95024.19;4997516;28;20216;-64
2023/03/24 06:03:55;;;;;;;16.17;14.57;;;;;;;8.76;56.56;95028.59;4968217;28;20536;-67
2023/03/24 06:06:21;;;;;;;20.77;15.40;;;;;;;8.88;56.47;95031.09;4966669;28;20180;-64
2023/03/24 06:08:46;;;;;;;17.83;15.00;;;;;;;9.05;55.99;95032.97;4967285;28;20220;-64
2023/03/24 06:11:12;;;;;;;19.50;15.33;;;;;;;9.05;56.55;95039.03;4963953;28;20259;-64
2023/03/24 06:13:38;;;;;;;21.03;15.50;;;;;;;9.17;56.14;95037.09;4967529;28;20219;-64
2023/03/24 06:16:03;;;;;;;19.27;16.87;;;;;;;9.21;56.60;95025.31;4965817;28;20200;-64
2023/03/24 06:18:32;;;;;;;20.97;17.73;;;;;;;9.17;56.90;95039.72;4967783;28;20598;-63
2023/03/24 06:20:58;;;;;;;19.27;17.37;;;;;;;9.00;57.84;95036.00;4981424;28;20226;-63
2023/03/24 06:23:26;;;;;;;19.90;16.87;;;;;;;9.12;57.66;95038.50;4964625;28;20220;-63
2023/03/24 06:25:52;;;;;;;20.77;17.03;;;;;;;9.23;56.91;95033.88;4966018;28;20284;-64
2023/03/24 06:28:18;;;;;;;20.90;17.07;;;;;;;9.37;56.89;95029.97;4967602;28;20263;-64
2023/03/24 06:30:45;;;;;;;22.93;17.87;;;;;;;9.50;56.02;95029.66;4968948;28;20216;-65
2023/03/24 06:33:12;;;;;;;21.47;16.87;;;;;;;9.09;57.46;95026.50;4967040;28;20292;-65
2023/03/24 06:35:38;;;;;;;21.20;16.83;;;;;;;9.26;57.52;95030.16;4965174;28;20225;-65
2023/03/24 06:38:04;;;;;;;18.80;16.73;;;;;;;9.37;57.10;95029.97;4994289;28;20231;-66
2023/03/24 06:40:30;;;;;;;25.63;17.07;;;;;;;9.49;56.75;95035.88;4967188;28;20220;-66
2023/03/24 06:42:55;;;;;;;19.63;15.97;;;;;;;9.57;56.57;95033.34;4963603;28;20188;-65
2023/03/24 06:45:20;;;;;;;19.10;16.53;;;;;;;9.62;56.24;95039.00;4949494;28;20209;-66
2023/03/24 06:47:46;;;;;;;19.83;15.70;;;;;;;9.50;56.31;95042.78;4960764;28;20225;-65
2023/03/24 06:50:12;;;;;;;18.50;14.77;;;;;;;9.42;56.55;95035.63;4952177;28;20611;-65
2023/03/24 06:52:37;;;;;;;21.73;14.67;;;;;;;9.54;56.04;95032.78;4934960;28;20788;-65
2023/03/24 06:55:03;;;;;;;17.53;15.73;;;;;;;9.65;56.04;95041.34;4950987;28;20652;-66
2023/03/24 06:57:29;;;;;;;20.33;16.63;;;;;;;9.86;55.49;95040.25;4935879;28;20227;-63
2023/03/24 06:59:54;;;;;;;17.80;16.00;;;;;;;9.93;55.55;95033.44;4951963;28;20220;-63
2023/03/24 07:02:20;;;;;;;21.30;16.50;;;;;;;9.96;54.98;95042.81;4952239;28;20228;-65
2023/03/24 07:04:46;;;;;;;18.63;14.87;;;;;;;10.13;54.87;95039.38;4958992;28;20218;-63
2023/03/24 07:07:12;;;;;;;20.23;15.20;;;;;;;10.47;53.49;95042.22;4961370;28;20220;-64
2023/03/24 07:09:38;;;;;;;18.03;15.60;;;;;;;10.04;54.71;95046.34;4960958;28;20238;-63
2023/03/24 07:12:05;;;;;;;16.70;14.97;;;;;;;10.21;54.65;95054.41;4960237;28;20374;-64
2023/03/24 07:14:30;;;;;;;17.85;15.98;;;;;;;10.29;54.23;95044.00;4964731;28;20227;-68
2023/03/24 07:16:56;;;;;;;16.92;15.10;;;;;;;10.24;53.72;95039.19;4961172;28;20236;-70
2023/03/24 07:19:21;;;;;;;18.53;15.53;;;;;;;10.19;54.32;95048.50;4956420;28;20220;-70
2023/03/24 07:21:48;;;;;;;18.33;15.97;;;;;;;10.38;54.14;95048.38;4964726;28;20189;-69
2023/03/24 07:24:18;;;;;;;20.02;16.52;;;;;;;10.47;54.02;95055.38;4989662;28;20303;-62
2023/03/24 07:26:44;;;;;;;18.73;16.40;;;;;;;10.52;54.04;95054.91;4958796;28;20220;-62
2023/03/24 07:29:10;;;;;;;18.17;16.27;;;;;;;10.91;52.80;95047.53;4959152;28;20216;-60
2023/03/24 07:31:38;;;;;;;21.13;15.97;;;;;;;10.32;54.44;95055.06;4961880;28;20216;-60
2023/03/24 07:34:07;;;;;;;20.60;16.20;;;;;;;10.47;54.56;95052.72;4964414;28;20687;-62
2023/03/24 07:36:33;;;;;;;18.63;16.23;;;;;;;10.68;54.00;95047.16;4962706;28;20221;-63
2023/03/24 07:38:58;;;;;;;19.30;15.73;;;;;;;10.81;53.63;95050.25;4955120;28;20280;-63
2023/03/24 07:41:25;;;;;;;20.07;16.43;;;;;;;10.90;53.27;95043.22;4956771;28;20478;-65
2023/03/24 07:43:51;;;;;;;18.77;16.93;;;;;;;10.98;53.28;95047.72;4959797;28;20251;-70
2023/03/24 07:46:16;;;;;;;19.52;16.15;;;;;;;11.03;52.90;95042.84;4965155;28;20244;-71
2023/03/24 07:48:41;;;;;;;18.90;16.08;;;;;;;11.08;52.79;95042.38;4987533;28;20192;-67
2023/03/24 07:51:07;;;;;;;19.37;16.73;;;;;;;11.08;52.70;95032.69;4961221;28;20244;-69
2023/03/24 07:53:32;;;;;;;17.20;15.37;;;;;;;10.93;53.19;95036.84;4961528;28;20348;-69
2023/03/24 07:55:58;;;;;;;17.60;15.82;;;;;;;11.06;52.78;95042.53;4962403;28;20326;-71
2023/03/24 07:58:24;;;;;;;28.30;25.03;;;;;;;11.33;52.08;95038.09;4961601;28;20300;-70
2023/03/24 08:00:49;;;;;;;22.77;20.40;;;;;;;11.32;52.26;95037.28;4963379;28;20196;-68
2023/03/24 08:03:15;;;;;;;20.27;15.57;;;;;;;11.54;51.52;95025.38;4960663;28;20272;-68
2023/03/24 08:05:41;;;;;;;19.38;15.50;;;;;;;11.42;51.79;95022.19;4958035;28;20312;-68
2023/03/24 08:08:06;;;;;;;19.10;15.63;;;;;;;11.50;51.87;95023.22;4960541;28;20275;-69
2023/03/24 08:10:32;;;;;;;21.52;16.08;;;;;;;11.45;51.96;95016.59;4960945;28;20233;-69
2023/03/24 08:12:58;;;;;;;18.00;14.55;;;;;;;11.51;52.06;95017.78;4963672;28;20243;-68
2023/03/24 08:15:26;;;;;;;19.02;14.82;;;;;;;11.59;51.59;95014.38;4963755;28;20196;-67
2023/03/24 08:17:51;;;;;;;17.80;14.50;;;;;;;11.68;51.19;95013.41;4961371;28;20231;-66
2023/03/24 08:20:19;;;;;;;17.88;14.63;;;;;;;11.79;50.43;95021.03;4953883;28;20232;-68
2023/03/24 08:22:48;;;;;;;15.38;13.82;;;;;;;11.82;50.57;95017.28;4973609;28;20246;-65
2023/03/24 08:25:17;;;;;;;18.83;14.27;;;;;;;11.88;50.54;95022.75;4962940;28;20227;-67
2023/03/24 08:27:43;;;;;;;18.00;13.70;;;;;;;11.64;51.00;95018.19;4988452;28;20313;-64
2023/03/24 08:30:13;;;;;;;18.83;14.68;;;;;;;11.85;50.19;95017.78;4962486;28;20221;-65
2023/03/24 08:32:46;;;;;;;17.08;14.23;;;;;;;12.05;49.67;95012.25;4956140;28;20308;-62
2023/03/24 08:35:14;;;;;;;18.55;16.58;;;;;;;12.25;49.35;95012.81;4963828;28;20244;-64
2023/03/24 08:37:42;;;;;;;18.80;13.23;;;;;;;12.29;48.63;95000.94;4957545;28;20220;-69
2023/03/24 08:40:12;;;;;;;15.88;14.18;;;;;;;12.26;49.35;95009.16;4959512;28;20279;-70
2023/03/24 08:42:42;;;;;;;17.00;14.10;;;;;;;12.30;48.43;94998.16;4960948;28;20192;-66
2023/03/24 08:45:10;;;;;;;15.80;14.02;;;;;;;12.42;48.25;94987.28;4955881;28;20244;-66
2023/03/24 08:47:35;;;;;;;16.77;14.07;;;;;;;12.42;48.76;94996.00;4952400;28;20683;-69
2023/03/24 08:50:01;;;;;;;14.80;13.30;;;;;;;12.48;49.09;94989.25;4962555;28;20240;-67
2023/03/24 08:52:26;;;;;;;15.33;13.73;;;;;;;12.55;48.40;94977.06;4991030;28;20222;-65
2023/03/24 08:54:52;;;;;;;17.95;14.90;;;;;;;12.59;48.28;94983.66;4956729;28;20271;-68
2023/03/24 08:57:17;;;;;;;16.63;14.85;;;;;;;12.63;48.06;94982.34;4955482;28;20200;-64
2023/03/24 08:59:43;;;;;;;18.75;13.90;;;;;;;12.36;48.68;94978.22;4961418;28;20404;-67
2023/03/24 09:02:10;;;;;;;17.08;15.27;;;;;;;12.41;48.87;94977.72;4965375;28;20222;-66
2023/03/24 09:04:36;;;;;;;18.88;13.85;;;;;;;12.36;49.34;94971.13;4967768;28;20216;-65
2023/03/24 09:07:02;;;;;;;16.15;13.93;;;;;;;12.55;48.82;94958.59;4963220;28;20191;-67
2023/03/24 09:09:29;;;;;;;19.85;15.10;;;;;;;12.74;48.85;94960.88;4965635;28;20180;-66
2023/03/24 09:11:54;;;;;;;19.25;14.70;;;;;;;12.88;48.41;94958.56;4952803;28;20237;-66
2023/03/24 09:14:21;;;;;;;19.70;14.10;;;;;;;13.01;48.01;94950.97;4953128;28;20248;-66
2023/03/24 09:16:48;;;;;;;17.63;14.77;;;;;;;13.14;47.74;94945.16;4964101;28;20235;-62
2023/03/24 09:19:17;;;;;;;17.85;14.65;;;;;;;13.23;47.90;94944.97;4961193;28;20303;-62
2023/03/24 09:21:47;;;;;;;16.60;14.40;;;;;;;13.40;47.63;94942.31;4962504;28;20215;-63
2023/03/24 09:24:13;;;;;;;16.30;14.13;;;;;;;13.50;46.58;94942.94;4957856;28;20261;-66
2023/03/24 09:26:39;;;;;;;19.50;13.93;;;;;;;13.61;46.06;94931.97;4962822;28;20262;-65
2023/03/24 09:29:05;;;;;;;20.50;14.35;;;;;;;13.72;46.25;94929.97;4963091;28;20229;-66
2023/03/24 09:31:30;;;;;;;18.13;13.57;;;;;;;14.36;44.62;94924.44;4961734;28;20225;-63
2023/03/24 09:33:55;;;;;;;15.93;13.75;;;;;;;14.41;43.95;94930.84;4959388;28;20192;-64
2023/03/24 09:36:21;;;;;;;16.77;13.38;;;;;;;14.33;43.92;94931.72;4959947;28;20196;-65
2023/03/24 09:38:47;;;;;;;15.20;13.63;;;;;;;14.75;42.68;94922.47;4987117;28;20284;-66
2023/03/24 09:41:25;;;;;;;17.08;13.48;;;;;;;14.29;43.66;94934.88;4956388;28;20294;-64
2023/03/24 09:43:51;;;;;;;14.70;13.18;;;;;;;14.72;42.41;94924.63;4989353;28;20271;-63
2023/03/24 09:46:54;;;;;;;15.95;13.73;;;;;;;14.50;42.70;94924.47;4987683;28;20224;-67
2023/03/24 09:49:27;;;;;;;19.10;13.40;;;;;;;14.48;43.11;94913.22;4921449;28;20263;-71
2023/03/24 09:52:05;;;;;;;18.10;12.98;;;;;;;14.58;43.98;94913.03;4905893;28;20490;-67
2023/03/24 09:54:52;;;;;;;14.50;13.05;;;;;;;14.59;43.69;94909.38;4918919;29;20214;-67
2023/03/24 09:57:27;;;;;;;16.10;12.98;;;;;;;14.76;42.67;94900.28;4905252;29;20241;-68
2023/03/24 09:59:53;;;;;;;14.43;12.15;;;;;;;15.00;42.32;94898.41;4907064;29;20232;-67
2023/03/24 10:02:20;;;;;;;15.73;12.70;;;;;;;15.94;40.45;94895.13;4921838;29;20221;-70
2023/03/24 10:04:46;;;;;;;15.38;13.32;;;;;;;15.87;39.72;94895.03;4940797;28;20271;-64
2023/03/24 10:07:28;;;;;;;14.30;12.40;;;;;;;15.34;40.26;94902.31;4917389;29;20229;-64
2023/03/24 10:09:58;;;;;;;14.55;12.23;;;;;;;15.27;40.82;94891.63;4917095;28;20210;-63
2023/03/24 10:12:46;;;;;;;12.95;11.52;;;;;;;15.71;39.04;94897.91;4940071;28;20201;-67
2023/03/24 10:15:46;;;;;;;13.13;11.05;;;;;;;15.46;39.83;94889.44;4922056;29;20240;-64
2023/03/24 10:18:11;;;;;;;12.88;10.80;;;;;;;15.65;40.14;94883.53;4922021;29;20244;-63
2023/03/24 10:20:55;;;;;;;15.27;11.85;;;;;;;15.82;40.47;94886.81;4939904;29;20229;-63
2023/03/24 10:23:32;;;;;;;17.02;11.57;;;;;;;16.01;40.29;94882.72;4918427;29;20225;-62
2023/03/24 10:26:13;;;;;;;11.45;10.32;;;;;;;16.08;39.45;94880.97;4938481;28;20640;-65
2023/03/24 10:29:16;;;;;;;13.02;10.27;;;;;;;16.56;37.92;94885.69;4951079;28;20256;-71
2023/03/24 10:31:44;;;;;;;11.20;9.30;;;;;;;16.37;38.10;94879.22;4956583;28;20223;-63
2023/03/24 10:34:11;;;;;;;12.02;10.75;;;;;;;16.49;38.80;94872.34;4960089;28;20228;-68
2023/03/24 10:36:38;;;;;;;14.40;11.13;;;;;;;16.67;38.19;94869.25;4960276;28;20274;-68
2023/03/24 10:39:04;;;;;;;13.65;10.73;;;;;;;17.08;37.13;94869.34;4956223;28;20223;-66
2023/03/24 10:41:32;;;;;;;12.02;10.73;;;;;;;17.01;36.45;94865.81;4960987;28;20216;-65
2023/03/24 10:43:59;;;;;;;12.52;10.40;;;;;;;16.97;37.42;94864.56;4957314;28;20221;-64
2023/03/24 10:46:28;;;;;;;12.48;10.75;;;;;;;17.12;37.65;94864.47;4966366;28;20557;-67
2023/03/24 10:49:14;;;;;;;12.68;10.43;;;;;;;17.48;36.34;94864.25;4961738;28;20192;-65
2023/03/24 10:51:45;;;;;;;11.27;9.80;;;;;;;17.52;36.79;94862.81;4960822;28;20246;-67
2023/03/24 10:54:31;;;;;;;12.20;10.50;;;;;;;17.40;35.52;94856.41;4964250;28;20213;-73
2023/03/24 10:56:56;;;;;;;12.00;10.80;;;;;;;17.05;36.47;94856.44;4958447;28;20259;-69
2023/03/24 11:00:13;;;;;;;12.15;10.77;;;;;;;17.23;36.75;94849.81;4960800;28;20216;-68
2023/03/24 11:02:41;;;;;;;11.90;10.68;;;;;;;17.67;35.62;94857.38;4965176;28;20247;-66
2023/03/24 11:05:13;;;;;;;11.60;10.05;;;;;;;17.96;36.49;94853.59;4963758;28;20222;-64
2023/03/24 11:07:41;;;;;;;11.32;9.60;;;;;;;17.90;35.43;94853.56;4988690;28;20220;-68
2023/03/24 11:10:09;;;;;;;9.90;8.93;;;;;;;18.00;36.40;94846.84;4962400;28;20318;-64
2023/03/24 11:12:37;;;;;;;13.25;8.65;;;;;;;18.01;35.21;94839.66;4958537;28;20235;-65
2023/03/24 11:15:16;;;;;;;10.65;8.38;;;;;;;18.10;36.46;94838.47;4964584;28;20702;-69
2023/03/24 11:17:42;;;;;;;9.85;8.93;;;;;;;17.97;35.19;94833.94;4960089;28;20220;-62
2023/03/24 11:20:24;;;;;;;11.73;7.80;;;;;;;17.94;37.64;94830.88;4987881;28;20232;-63
2023/03/24 11:23:08;;;;;;;13.07;7.75;;;;;;;18.44;32.87;94825.97;4963680;28;20360;-63
2023/03/24 11:25:39;;;;;;;8.82;7.93;;;;;;;18.02;34.33;94828.84;4961764;28;20425;-66
2023/03/24 11:28:08;;;;;;;10.30;8.13;;;;;;;18.27;33.74;94814.94;4963469;28;20189;-69
2023/03/24 11:30:56;;;;;;;9.10;7.25;;;;;;;18.82;31.15;94806.72;4973836;28;20212;-63
2023/03/24 11:33:32;;;;;;;8.68;7.30;;;;;;;18.58;31.82;94800.16;4961722;28;20221;-63
2023/03/24 11:35:58;;;;;;;10.95;7.60;;;;;;;18.40;33.74;94801.63;4976139;28;20274;-68
2023/03/24 11:38:30;;;;;;;12.10;8.05;;;;;;;18.55;32.50;94803.25;4970911;28;20223;-68